sensor_id;sensor_type;location;lat;lon;timestamp;P1;durP1;ratioP1;P2;durP2;ratioP2
83465;SDS011;73393;51.946;20.140;2024-02-23T00:01:30;8.90;;;6.30;;
83465;SDS011;73393;51.946;20.140;2024-02-23T00:03:56;10.93;;;7.57;;
83465;SDS011;73393;51.946;20.140;2024-02-23T00:06:21;11.20;;;7.13;;
83465;SDS011;73393;51.946;20.140;2024-02-23T00:08:53;11.37;;;6.50;;
83465;SDS011;73393;51.946;20.140;2024-02-23T00:11:20;9.87;;;6.63;;
83465;SDS011;73393;51.946;20.140;2024-02-23T00:13:46;10.07;;;6.60;;
83465;SDS011;73393;51.946;20.140;2024-02-23T00:16:11;11.30;;;5.60;;
83465;SDS011;73393;51.946;20.140;2024-02-23T00:18:37;7.90;;;5.53;;
83465;SDS011;73393;51.946;20.140;2024-02-23T00:21:03;10.73;;;6.20;;
83465;SDS011;73393;51.946;20.140;2024-02-23T00:23:29;9.43;;;6.50;;
83465;SDS011;73393;51.946;20.140;2024-02-23T00:25:55;8.67;;;5.37;;
83465;SDS011;73393;51.946;20.140;2024-02-23T00:28:21;10.17;;;6.53;;
83465;SDS011;73393;51.946;20.140;2024-02-23T00:30:46;8.20;;;5.30;;
83465;SDS011;73393;51.946;20.140;2024-02-23T00:33:12;8.30;;;5.63;;
83465;SDS011;73393;51.946;20.140;2024-02-23T00:35:37;7.83;;;5.07;;
83465;SDS011;73393;51.946;20.140;2024-02-23T00:38:03;8.60;;;5.07;;
83465;SDS011;73393;51.946;20.140;2024-02-23T00:40:29;8.93;;;6.00;;
83465;SDS011;73393;51.946;20.140;2024-02-23T00:42:54;8.83;;;5.20;;
83465;SDS011;73393;51.946;20.140;2024-02-23T00:45:20;9.17;;;6.07;;
83465;SDS011;73393;51.946;20.140;2024-02-23T00:47:46;7.57;;;5.00;;
83465;SDS011;73393;51.946;20.140;2024-02-23T00:50:12;8.07;;;5.27;;
83465;SDS011;73393;51.946;20.140;2024-02-23T00:52:38;7.67;;;5.10;;
83465;SDS011;73393;51.946;20.140;2024-02-23T00:55:04;9.00;;;5.67;;
83465;SDS011;73393;51.946;20.140;2024-02-23T00:57:30;8.97;;;4.90;;
83465;SDS011;73393;51.946;20.140;2024-02-23T00:59:57;9.00;;;5.27;;
83465;SDS011;73393;51.946;20.140;2024-02-23T01:02:22;8.57;;;5.77;;
83465;SDS011;73393;51.946;20.140;2024-02-23T01:04:48;7.73;;;4.93;;
83465;SDS011;73393;51.946;20.140;2024-02-23T01:07:13;8.07;;;5.53;;
83465;SDS011;73393;51.946;20.140;2024-02-23T01:09:39;9.17;;;5.67;;
83465;SDS011;73393;51.946;20.140;2024-02-23T01:12:05;7.47;;;5.10;;
83465;SDS011;73393;51.946;20.140;2024-02-23T01:14:31;6.10;;;4.50;;
83465;SDS011;73393;51.946;20.140;2024-02-23T01:16:56;7.30;;;5.07;;
83465;SDS011;73393;51.946;20.140;2024-02-23T01:19:22;6.90;;;4.93;;
83465;SDS011;73393;51.946;20.140;2024-02-23T01:21:48;8.20;;;5.03;;
83465;SDS011;73393;51.946;20.140;2024-02-23T01:24:20;8.87;;;5.70;;
83465;SDS011;73393;51.946;20.140;2024-02-23T01:26:46;11.70;;;6.20;;
83465;SDS011;73393;51.946;20.140;2024-02-23T01:29:11;9.67;;;6.03;;
83465;SDS011;73393;51.946;20.140;2024-02-23T01:31:37;7.40;;;4.43;;
83465;SDS011;73393;51.946;20.140;2024-02-23T01:34:03;8.57;;;5.23;;
83465;SDS011;73393;51.946;20.140;2024-02-23T01:36:28;7.87;;;5.23;;
83465;SDS011;73393;51.946;20.140;2024-02-23T01:38:54;6.23;;;5.00;;
83465;SDS011;73393;51.946;20.140;2024-02-23T01:41:20;8.07;;;4.90;;
83465;SDS011;73393;51.946;20.140;2024-02-23T01:43:45;6.53;;;4.43;;
83465;SDS011;73393;51.946;20.140;2024-02-23T01:46:11;6.33;;;4.67;;
83465;SDS011;73393;51.946;20.140;2024-02-23T01:48:36;7.90;;;5.03;;
83465;SDS011;73393;51.946;20.140;2024-02-23T01:51:02;7.07;;;4.27;;
83465;SDS011;73393;51.946;20.140;2024-02-23T01:53:28;7.60;;;4.93;;
83465;SDS011;73393;51.946;20.140;2024-02-23T01:55:55;6.40;;;4.80;;
83465;SDS011;73393;51.946;20.140;2024-02-23T01:58:22;7.53;;;5.70;;
83465;SDS011;73393;51.946;20.140;2024-02-23T02:00:48;6.57;;;4.50;;
83465;SDS011;73393;51.946;20.140;2024-02-23T02:03:14;6.67;;;4.37;;
83465;SDS011;73393;51.946;20.140;2024-02-23T02:05:39;8.23;;;4.33;;
83465;SDS011;73393;51.946;20.140;2024-02-23T02:08:05;7.37;;;4.80;;
83465;SDS011;73393;51.946;20.140;2024-02-23T02:10:31;7.80;;;4.77;;
83465;SDS011;73393;51.946;20.140;2024-02-23T02:13:06;7.67;;;4.97;;
83465;SDS011;73393;51.946;20.140;2024-02-23T02:15:31;7.63;;;4.83;;
83465;SDS011;73393;51.946;20.140;2024-02-23T02:17:57;5.77;;;4.43;;
83465;SDS011;73393;51.946;20.140;2024-02-23T02:20:23;6.80;;;4.73;;
83465;SDS011;73393;51.946;20.140;2024-02-23T02:22:53;5.82;;;4.72;;
83465;SDS011;73393;51.946;20.140;2024-02-23T02:25:19;5.77;;;4.50;;
83465;SDS011;73393;51.946;20.140;2024-02-23T02:27:44;8.60;;;4.20;;
83465;SDS011;73393;51.946;20.140;2024-02-23T02:30:11;6.23;;;4.10;;
83465;SDS011;73393;51.946;20.140;2024-02-23T02:32:37;5.60;;;4.00;;
83465;SDS011;73393;51.946;20.140;2024-02-23T02:35:03;7.47;;;4.23;;
83465;SDS011;73393;51.946;20.140;2024-02-23T02:37:29;6.57;;;4.27;;
83465;SDS011;73393;51.946;20.140;2024-02-23T02:39:54;6.53;;;4.37;;
83465;SDS011;73393;51.946;20.140;2024-02-23T02:42:20;7.57;;;3.93;;
83465;SDS011;73393;51.946;20.140;2024-02-23T02:44:45;8.03;;;4.30;;
83465;SDS011;73393;51.946;20.140;2024-02-23T02:47:11;7.40;;;4.40;;
83465;SDS011;73393;51.946;20.140;2024-02-23T02:49:38;6.97;;;3.97;;
83465;SDS011;73393;51.946;20.140;2024-02-23T02:52:04;7.43;;;4.50;;
83465;SDS011;73393;51.946;20.140;2024-02-23T02:54:31;7.27;;;4.00;;
83465;SDS011;73393;51.946;20.140;2024-02-23T02:56:57;6.10;;;4.20;;
83465;SDS011;73393;51.946;20.140;2024-02-23T02:59:23;6.23;;;4.17;;
83465;SDS011;73393;51.946;20.140;2024-02-23T03:01:49;8.03;;;4.20;;
83465;SDS011;73393;51.946;20.140;2024-02-23T03:04:14;7.43;;;4.30;;
83465;SDS011;73393;51.946;20.140;2024-02-23T03:06:40;6.93;;;4.43;;
83465;SDS011;73393;51.946;20.140;2024-02-23T03:09:05;6.97;;;4.27;;
83465;SDS011;73393;51.946;20.140;2024-02-23T03:11:32;7.47;;;4.30;;
83465;SDS011;73393;51.946;20.140;2024-02-23T03:13:57;7.97;;;4.13;;
83465;SDS011;73393;51.946;20.140;2024-02-23T03:16:23;6.57;;;3.90;;
83465;SDS011;73393;51.946;20.140;2024-02-23T03:18:51;7.07;;;3.90;;
83465;SDS011;73393;51.946;20.140;2024-02-23T03:21:16;9.67;;;4.57;;
83465;SDS011;73393;51.946;20.140;2024-02-23T03:23:42;5.43;;;3.60;;
83465;SDS011;73393;51.946;20.140;2024-02-23T03:26:08;7.27;;;3.93;;
83465;SDS011;73393;51.946;20.140;2024-02-23T03:28:33;8.20;;;4.80;;
83465;SDS011;73393;51.946;20.140;2024-02-23T03:31:02;8.10;;;4.47;;
83465;SDS011;73393;51.946;20.140;2024-02-23T03:33:28;11.27;;;5.03;;
83465;SDS011;73393;51.946;20.140;2024-02-23T03:35:53;21.40;;;13.10;;
83465;SDS011;73393;51.946;20.140;2024-02-23T03:38:20;10.57;;;6.33;;
83465;SDS011;73393;51.946;20.140;2024-02-23T03:40:46;9.23;;;5.17;;
83465;SDS011;73393;51.946;20.140;2024-02-23T03:43:11;6.47;;;4.40;;
83465;SDS011;73393;51.946;20.140;2024-02-23T03:45:37;10.13;;;4.70;;
83465;SDS011;73393;51.946;20.140;2024-02-23T03:48:03;6.63;;;4.23;;
83465;SDS011;73393;51.946;20.140;2024-02-23T03:50:29;6.47;;;3.90;;
83465;SDS011;73393;51.946;20.140;2024-02-23T03:52:55;7.33;;;4.27;;
83465;SDS011;73393;51.946;20.140;2024-02-23T03:55:20;6.77;;;4.07;;
83465;SDS011;73393;51.946;20.140;2024-02-23T03:57:47;6.30;;;4.40;;
83465;SDS011;73393;51.946;20.140;2024-02-23T04:00:12;6.83;;;4.23;;
83465;SDS011;73393;51.946;20.140;2024-02-23T04:02:38;8.20;;;4.80;;
83465;SDS011;73393;51.946;20.140;2024-02-23T04:05:04;9.33;;;4.47;;
83465;SDS011;73393;51.946;20.140;2024-02-23T04:07:30;5.10;;;4.17;;
83465;SDS011;73393;51.946;20.140;2024-02-23T04:09:56;6.93;;;4.43;;
83465;SDS011;73393;51.946;20.140;2024-02-23T04:12:21;7.10;;;4.30;;
83465;SDS011;73393;51.946;20.140;2024-02-23T04:14:47;8.43;;;5.60;;
83465;SDS011;73393;51.946;20.140;2024-02-23T04:17:13;7.67;;;5.20;;
83465;SDS011;73393;51.946;20.140;2024-02-23T04:19:42;7.60;;;4.47;;
83465;SDS011;73393;51.946;20.140;2024-02-23T04:22:08;7.93;;;5.00;;
83465;SDS011;73393;51.946;20.140;2024-02-23T04:24:40;7.10;;;4.73;;
83465;SDS011;73393;51.946;20.140;2024-02-23T04:27:06;9.77;;;5.57;;
83465;SDS011;73393;51.946;20.140;2024-02-23T04:29:33;8.77;;;5.53;;
83465;SDS011;73393;51.946;20.140;2024-02-23T04:31:59;7.07;;;5.13;;
83465;SDS011;73393;51.946;20.140;2024-02-23T04:34:25;8.40;;;5.57;;
83465;SDS011;73393;51.946;20.140;2024-02-23T04:36:51;8.40;;;4.90;;
83465;SDS011;73393;51.946;20.140;2024-02-23T04:39:16;8.17;;;4.93;;
83465;SDS011;73393;51.946;20.140;2024-02-23T04:41:42;8.67;;;6.23;;
83465;SDS011;73393;51.946;20.140;2024-02-23T04:44:08;9.00;;;5.67;;
83465;SDS011;73393;51.946;20.140;2024-02-23T04:46:34;8.03;;;5.37;;
83465;SDS011;73393;51.946;20.140;2024-02-23T04:48:59;9.33;;;6.40;;
83465;SDS011;73393;51.946;20.140;2024-02-23T04:51:25;10.53;;;6.27;;
83465;SDS011;73393;51.946;20.140;2024-02-23T04:53:52;8.90;;;5.83;;
83465;SDS011;73393;51.946;20.140;2024-02-23T04:56:17;8.23;;;5.77;;
83465;SDS011;73393;51.946;20.140;2024-02-23T04:58:43;9.80;;;6.03;;
83465;SDS011;73393;51.946;20.140;2024-02-23T05:01:09;8.13;;;5.20;;
83465;SDS011;73393;51.946;20.140;2024-02-23T05:03:36;10.57;;;6.20;;
83465;SDS011;73393;51.946;20.140;2024-02-23T05:06:02;8.70;;;6.37;;
83465;SDS011;73393;51.946;20.140;2024-02-23T05:08:28;12.43;;;6.30;;
83465;SDS011;73393;51.946;20.140;2024-02-23T05:10:55;8.33;;;6.30;;
83465;SDS011;73393;51.946;20.140;2024-02-23T05:13:24;8.83;;;5.97;;
83465;SDS011;73393;51.946;20.140;2024-02-23T05:15:49;9.80;;;6.53;;
83465;SDS011;73393;51.946;20.140;2024-02-23T05:18:15;9.40;;;6.40;;
83465;SDS011;73393;51.946;20.140;2024-02-23T05:20:41;9.47;;;6.30;;
83465;SDS011;73393;51.946;20.140;2024-02-23T05:23:06;10.70;;;6.93;;
83465;SDS011;73393;51.946;20.140;2024-02-23T05:25:32;9.93;;;7.33;;
83465;SDS011;73393;51.946;20.140;2024-02-23T05:27:58;11.37;;;6.40;;
83465;SDS011;73393;51.946;20.140;2024-02-23T05:30:23;9.37;;;6.47;;
83465;SDS011;73393;51.946;20.140;2024-02-23T05:32:50;9.80;;;6.63;;
83465;SDS011;73393;51.946;20.140;2024-02-23T05:35:15;11.83;;;7.33;;
83465;SDS011;73393;51.946;20.140;2024-02-23T05:37:41;9.90;;;7.17;;
83465;SDS011;73393;51.946;20.140;2024-02-23T05:40:07;11.63;;;8.07;;
83465;SDS011;73393;51.946;20.140;2024-02-23T05:42:38;9.47;;;7.20;;
83465;SDS011;73393;51.946;20.140;2024-02-23T05:45:04;10.57;;;8.00;;
83465;SDS011;73393;51.946;20.140;2024-02-23T05:47:33;14.33;;;10.27;;
83465;SDS011;73393;51.946;20.140;2024-02-23T05:49:59;12.47;;;9.00;;
83465;SDS011;73393;51.946;20.140;2024-02-23T05:52:25;12.20;;;7.33;;
83465;SDS011;73393;51.946;20.140;2024-02-23T05:54:50;10.30;;;7.07;;
83465;SDS011;73393;51.946;20.140;2024-02-23T05:57:17;9.07;;;6.37;;
83465;SDS011;73393;51.946;20.140;2024-02-23T05:59:42;10.10;;;6.47;;
83465;SDS011;73393;51.946;20.140;2024-02-23T06:02:08;10.50;;;6.20;;
83465;SDS011;73393;51.946;20.140;2024-02-23T06:04:33;10.90;;;6.97;;
83465;SDS011;73393;51.946;20.140;2024-02-23T06:06:59;11.03;;;8.03;;
83465;SDS011;73393;51.946;20.140;2024-02-23T06:09:25;51.30;;;23.00;;
83465;SDS011;73393;51.946;20.140;2024-02-23T06:11:51;16.70;;;9.63;;
83465;SDS011;73393;51.946;20.140;2024-02-23T06:14:16;16.60;;;8.40;;
83465;SDS011;73393;51.946;20.140;2024-02-23T06:16:42;10.80;;;6.60;;
83465;SDS011;73393;51.946;20.140;2024-02-23T06:19:08;11.83;;;8.03;;
83465;SDS011;73393;51.946;20.140;2024-02-23T06:21:33;10.80;;;7.57;;
83465;SDS011;73393;51.946;20.140;2024-02-23T06:23:59;14.30;;;8.37;;
83465;SDS011;73393;51.946;20.140;2024-02-23T06:26:26;10.17;;;7.50;;
83465;SDS011;73393;51.946;20.140;2024-02-23T06:28:52;10.47;;;6.20;;
83465;SDS011;73393;51.946;20.140;2024-02-23T06:31:17;7.77;;;5.33;;
83465;SDS011;73393;51.946;20.140;2024-02-23T06:33:43;7.93;;;6.67;;
83465;SDS011;73393;51.946;20.140;2024-02-23T06:36:09;10.40;;;6.77;;
83465;SDS011;73393;51.946;20.140;2024-02-23T06:38:34;9.40;;;6.50;;
83465;SDS011;73393;51.946;20.140;2024-02-23T06:41:00;10.97;;;7.33;;
83465;SDS011;73393;51.946;20.140;2024-02-23T06:43:26;10.33;;;8.03;;
83465;SDS011;73393;51.946;20.140;2024-02-23T06:45:51;11.47;;;7.17;;
83465;SDS011;73393;51.946;20.140;2024-02-23T06:48:17;9.20;;;6.90;;
83465;SDS011;73393;51.946;20.140;2024-02-23T06:50:43;12.67;;;7.80;;
83465;SDS011;73393;51.946;20.140;2024-02-23T06:53:09;10.67;;;7.40;;
83465;SDS011;73393;51.946;20.140;2024-02-23T06:55:34;11.30;;;7.50;;
83465;SDS011;73393;51.946;20.140;2024-02-23T06:58:00;14.47;;;7.67;;
83465;SDS011;73393;51.946;20.140;2024-02-23T07:00:26;10.40;;;8.17;;
83465;SDS011;73393;51.946;20.140;2024-02-23T07:02:52;10.17;;;7.87;;
83465;SDS011;73393;51.946;20.140;2024-02-23T07:05:17;11.73;;;8.57;;
83465;SDS011;73393;51.946;20.140;2024-02-23T07:07:43;10.30;;;7.13;;
83465;SDS011;73393;51.946;20.140;2024-02-23T07:10:09;13.07;;;8.80;;
83465;SDS011;73393;51.946;20.140;2024-02-23T07:12:36;10.10;;;7.80;;
83465;SDS011;73393;51.946;20.140;2024-02-23T07:15:01;12.43;;;7.70;;
83465;SDS011;73393;51.946;20.140;2024-02-23T07:17:27;12.67;;;8.40;;
83465;SDS011;73393;51.946;20.140;2024-02-23T07:19:55;13.70;;;8.73;;
83465;SDS011;73393;51.946;20.140;2024-02-23T07:22:28;12.10;;;9.37;;
83465;SDS011;73393;51.946;20.140;2024-02-23T07:24:53;14.63;;;9.00;;
83465;SDS011;73393;51.946;20.140;2024-02-23T07:27:19;12.73;;;9.30;;
83465;SDS011;73393;51.946;20.140;2024-02-23T07:29:44;13.73;;;7.60;;
83465;SDS011;73393;51.946;20.140;2024-02-23T07:32:10;14.20;;;8.10;;
83465;SDS011;73393;51.946;20.140;2024-02-23T07:34:36;15.60;;;10.47;;
83465;SDS011;73393;51.946;20.140;2024-02-23T07:37:02;18.43;;;11.17;;
83465;SDS011;73393;51.946;20.140;2024-02-23T07:39:28;17.73;;;10.13;;
83465;SDS011;73393;51.946;20.140;2024-02-23T07:41:54;16.33;;;9.07;;
83465;SDS011;73393;51.946;20.140;2024-02-23T07:44:20;13.40;;;8.33;;
83465;SDS011;73393;51.946;20.140;2024-02-23T07:46:45;15.40;;;9.43;;
83465;SDS011;73393;51.946;20.140;2024-02-23T07:49:11;13.57;;;8.83;;
83465;SDS011;73393;51.946;20.140;2024-02-23T07:51:36;11.60;;;8.00;;
83465;SDS011;73393;51.946;20.140;2024-02-23T07:54:02;12.67;;;8.30;;
83465;SDS011;73393;51.946;20.140;2024-02-23T07:56:28;11.03;;;7.60;;
83465;SDS011;73393;51.946;20.140;2024-02-23T07:58:54;11.30;;;7.87;;
83465;SDS011;73393;51.946;20.140;2024-02-23T08:01:20;12.27;;;8.77;;
83465;SDS011;73393;51.946;20.140;2024-02-23T08:03:45;10.87;;;8.63;;
83465;SDS011;73393;51.946;20.140;2024-02-23T08:06:11;10.30;;;7.37;;
83465;SDS011;73393;51.946;20.140;2024-02-23T08:08:38;12.70;;;9.83;;
83465;SDS011;73393;51.946;20.140;2024-02-23T08:11:03;13.37;;;9.10;;
83465;SDS011;73393;51.946;20.140;2024-02-23T08:13:29;11.27;;;8.00;;
83465;SDS011;73393;51.946;20.140;2024-02-23T08:15:55;13.47;;;8.67;;
83465;SDS011;73393;51.946;20.140;2024-02-23T08:18:22;10.67;;;7.93;;
83465;SDS011;73393;51.946;20.140;2024-02-23T08:20:48;12.60;;;8.83;;
83465;SDS011;73393;51.946;20.140;2024-02-23T08:23:13;11.83;;;8.60;;
83465;SDS011;73393;51.946;20.140;2024-02-23T08:25:39;12.33;;;8.27;;
83465;SDS011;73393;51.946;20.140;2024-02-23T08:28:05;12.37;;;7.80;;
83465;SDS011;73393;51.946;20.140;2024-02-23T08:30:31;11.53;;;8.07;;
83465;SDS011;73393;51.946;20.140;2024-02-23T08:32:57;10.87;;;8.20;;
83465;SDS011;73393;51.946;20.140;2024-02-23T08:35:22;12.40;;;8.60;;
83465;SDS011;73393;51.946;20.140;2024-02-23T08:37:48;9.80;;;8.20;;
83465;SDS011;73393;51.946;20.140;2024-02-23T08:40:15;14.40;;;8.27;;
83465;SDS011;73393;51.946;20.140;2024-02-23T08:42:41;13.57;;;8.47;;
83465;SDS011;73393;51.946;20.140;2024-02-23T08:45:07;9.90;;;7.53;;
83465;SDS011;73393;51.946;20.140;2024-02-23T08:47:34;11.77;;;7.70;;
83465;SDS011;73393;51.946;20.140;2024-02-23T08:50:00;9.63;;;6.97;;
83465;SDS011;73393;51.946;20.140;2024-02-23T08:52:27;9.37;;;7.60;;
83465;SDS011;73393;51.946;20.140;2024-02-23T08:54:52;10.47;;;6.97;;
83465;SDS011;73393;51.946;20.140;2024-02-23T08:57:18;8.37;;;7.27;;
83465;SDS011;73393;51.946;20.140;2024-02-23T08:59:48;8.63;;;6.07;;
83465;SDS011;73393;51.946;20.140;2024-02-23T09:04:42;8.87;;;6.80;;
83465;SDS011;73393;51.946;20.140;2024-02-23T09:07:09;8.87;;;6.77;;
83465;SDS011;73393;51.946;20.140;2024-02-23T09:09:35;8.13;;;6.50;;
83465;SDS011;73393;51.946;20.140;2024-02-23T09:12:03;8.27;;;6.37;;
83465;SDS011;73393;51.946;20.140;2024-02-23T09:14:29;10.13;;;7.00;;
83465;SDS011;73393;51.946;20.140;2024-02-23T09:16:55;13.70;;;10.27;;
83465;SDS011;73393;51.946;20.140;2024-02-23T09:19:20;12.13;;;8.27;;
83465;SDS011;73393;51.946;20.140;2024-02-23T09:21:46;14.60;;;10.10;;
83465;SDS011;73393;51.946;20.140;2024-02-23T09:24:12;11.63;;;8.93;;
83465;SDS011;73393;51.946;20.140;2024-02-23T09:26:37;13.03;;;9.13;;
83465;SDS011;73393;51.946;20.140;2024-02-23T09:29:04;12.40;;;8.87;;
83465;SDS011;73393;51.946;20.140;2024-02-23T09:31:29;10.73;;;8.70;;
83465;SDS011;73393;51.946;20.140;2024-02-23T09:33:56;8.90;;;7.73;;
83465;SDS011;73393;51.946;20.140;2024-02-23T09:36:22;10.60;;;8.10;;
83465;SDS011;73393;51.946;20.140;2024-02-23T09:38:48;10.97;;;8.13;;
83465;SDS011;73393;51.946;20.140;2024-02-23T09:41:24;9.93;;;7.27;;
83465;SDS011;73393;51.946;20.140;2024-02-23T09:43:50;11.45;;;7.88;;
83465;SDS011;73393;51.946;20.140;2024-02-23T09:46:16;8.40;;;7.18;;
83465;SDS011;73393;51.946;20.140;2024-02-23T09:48:43;9.55;;;8.00;;
83465;SDS011;73393;51.946;20.140;2024-02-23T09:51:10;10.13;;;7.25;;
83465;SDS011;73393;51.946;20.140;2024-02-23T09:53:38;9.15;;;6.68;;
83465;SDS011;73393;51.946;20.140;2024-02-23T09:56:05;10.45;;;7.25;;
83465;SDS011;73393;51.946;20.140;2024-02-23T09:58:31;11.30;;;8.60;;
83465;SDS011;73393;51.946;20.140;2024-02-23T10:00:59;11.07;;;8.07;;
83465;SDS011;73393;51.946;20.140;2024-02-23T10:03:28;9.15;;;7.43;;
83465;SDS011;73393;51.946;20.140;2024-02-23T10:05:55;10.83;;;7.53;;
83465;SDS011;73393;51.946;20.140;2024-02-23T10:08:21;10.00;;;6.70;;
83465;SDS011;73393;51.946;20.140;2024-02-23T10:10:47;11.50;;;8.30;;
83465;SDS011;73393;51.946;20.140;2024-02-23T10:13:17;10.73;;;7.80;;
83465;SDS011;73393;51.946;20.140;2024-02-23T10:15:47;13.05;;;7.82;;
83465;SDS011;73393;51.946;20.140;2024-02-23T10:18:13;8.13;;;6.13;;
83465;SDS011;73393;51.946;20.140;2024-02-23T10:20:39;11.13;;;7.43;;
83465;SDS011;73393;51.946;20.140;2024-02-23T10:23:05;11.43;;;7.22;;
83465;SDS011;73393;51.946;20.140;2024-02-23T10:25:33;9.68;;;6.85;;
83465;SDS011;73393;51.946;20.140;2024-02-23T10:28:01;8.27;;;5.90;;
83465;SDS011;73393;51.946;20.140;2024-02-23T10:30:27;8.55;;;6.15;;
83465;SDS011;73393;51.946;20.140;2024-02-23T10:32:54;8.13;;;5.40;;
83465;SDS011;73393;51.946;20.140;2024-02-23T10:35:22;10.77;;;6.43;;
83465;SDS011;73393;51.946;20.140;2024-02-23T10:37:49;11.47;;;6.87;;
83465;SDS011;73393;51.946;20.140;2024-02-23T10:40:17;11.20;;;7.60;;
83465;SDS011;73393;51.946;20.140;2024-02-23T10:42:44;13.23;;;8.20;;
83465;SDS011;73393;51.946;20.140;2024-02-23T10:45:16;14.15;;;8.20;;
83465;SDS011;73393;51.946;20.140;2024-02-23T10:47:43;11.87;;;6.40;;
83465;SDS011;73393;51.946;20.140;2024-02-23T10:50:09;7.65;;;5.53;;
83465;SDS011;73393;51.946;20.140;2024-02-23T10:52:39;13.05;;;8.02;;
83465;SDS011;73393;51.946;20.140;2024-02-23T10:55:07;13.67;;;10.10;;
83465;SDS011;73393;51.946;20.140;2024-02-23T10:57:34;11.90;;;8.23;;
83465;SDS011;73393;51.946;20.140;2024-02-23T11:00:00;11.43;;;8.20;;
83465;SDS011;73393;51.946;20.140;2024-02-23T11:02:30;10.27;;;7.27;;
83465;SDS011;73393;51.946;20.140;2024-02-23T11:04:57;18.85;;;11.05;;
83465;SDS011;73393;51.946;20.140;2024-02-23T11:07:24;18.87;;;14.23;;
83465;SDS011;73393;51.946;20.140;2024-02-23T11:09:53;14.83;;;8.67;;
83465;SDS011;73393;51.946;20.140;2024-02-23T11:12:25;12.23;;;8.70;;
83465;SDS011;73393;51.946;20.140;2024-02-23T11:14:57;11.73;;;7.65;;
83465;SDS011;73393;51.946;20.140;2024-02-23T11:17:26;11.25;;;8.63;;
83465;SDS011;73393;51.946;20.140;2024-02-23T11:19:53;21.02;;;10.90;;
83465;SDS011;73393;51.946;20.140;2024-02-23T11:24:52;10.07;;;7.90;;
83465;SDS011;73393;51.946;20.140;2024-02-23T11:27:18;11.77;;;8.00;;
83465;SDS011;73393;51.946;20.140;2024-02-23T11:29:47;13.43;;;11.05;;
83465;SDS011;73393;51.946;20.140;2024-02-23T11:32:23;13.55;;;10.40;;
83465;SDS011;73393;51.946;20.140;2024-02-23T11:35:15;13.15;;;8.40;;
83465;SDS011;73393;51.946;20.140;2024-02-23T11:37:53;9.73;;;8.02;;
83465;SDS011;73393;51.946;20.140;2024-02-23T11:40:27;8.65;;;6.32;;
83465;SDS011;73393;51.946;20.140;2024-02-23T11:42:55;12.60;;;7.43;;
83465;SDS011;73393;51.946;20.140;2024-02-23T11:45:20;9.23;;;6.57;;
83465;SDS011;73393;51.946;20.140;2024-02-23T11:47:47;9.45;;;6.88;;
83465;SDS011;73393;51.946;20.140;2024-02-23T11:50:13;10.63;;;6.80;;
83465;SDS011;73393;51.946;20.140;2024-02-23T11:52:40;8.63;;;6.03;;
83465;SDS011;73393;51.946;20.140;2024-02-23T11:55:06;10.98;;;6.15;;
83465;SDS011;73393;51.946;20.140;2024-02-23T11:57:33;11.68;;;7.78;;
83465;SDS011;73393;51.946;20.140;2024-02-23T12:00:01;9.82;;;6.85;;
83465;SDS011;73393;51.946;20.140;2024-02-23T12:02:28;12.35;;;8.73;;
83465;SDS011;73393;51.946;20.140;2024-02-23T12:04:53;13.60;;;8.10;;
83465;SDS011;73393;51.946;20.140;2024-02-23T12:07:19;13.23;;;9.93;;
83465;SDS011;73393;51.946;20.140;2024-02-23T12:09:46;11.15;;;8.40;;
83465;SDS011;73393;51.946;20.140;2024-02-23T12:12:12;13.20;;;8.98;;
83465;SDS011;73393;51.946;20.140;2024-02-23T12:14:39;16.77;;;10.80;;
83465;SDS011;73393;51.946;20.140;2024-02-23T12:17:05;18.58;;;12.05;;
83465;SDS011;73393;51.946;20.140;2024-02-23T12:19:37;11.47;;;8.40;;
83465;SDS011;73393;51.946;20.140;2024-02-23T12:22:04;10.20;;;8.20;;
83465;SDS011;73393;51.946;20.140;2024-02-23T12:24:29;10.50;;;7.35;;
83465;SDS011;73393;51.946;20.140;2024-02-23T12:26:55;10.57;;;7.32;;
83465;SDS011;73393;51.946;20.140;2024-02-23T12:29:21;11.00;;;8.00;;
83465;SDS011;73393;51.946;20.140;2024-02-23T12:31:47;12.48;;;9.15;;
83465;SDS011;73393;51.946;20.140;2024-02-23T12:34:13;11.48;;;8.45;;
83465;SDS011;73393;51.946;20.140;2024-02-23T12:36:39;10.13;;;8.05;;
83465;SDS011;73393;51.946;20.140;2024-02-23T12:39:04;13.25;;;9.00;;
83465;SDS011;73393;51.946;20.140;2024-02-23T12:41:30;12.98;;;7.22;;
83465;SDS011;73393;51.946;20.140;2024-02-23T12:43:56;14.75;;;10.73;;
83465;SDS011;73393;51.946;20.140;2024-02-23T12:46:22;10.13;;;7.97;;
83465;SDS011;73393;51.946;20.140;2024-02-23T12:48:48;10.85;;;8.48;;
83465;SDS011;73393;51.946;20.140;2024-02-23T12:51:14;11.50;;;9.48;;
83465;SDS011;73393;51.946;20.140;2024-02-23T12:53:40;16.55;;;11.60;;
83465;SDS011;73393;51.946;20.140;2024-02-23T12:56:10;17.90;;;12.27;;
83465;SDS011;73393;51.946;20.140;2024-02-23T12:58:39;20.02;;;12.98;;
83465;SDS011;73393;51.946;20.140;2024-02-23T13:01:05;15.20;;;9.02;;
83465;SDS011;73393;51.946;20.140;2024-02-23T13:03:32;12.60;;;8.70;;
83465;SDS011;73393;51.946;20.140;2024-02-23T13:06:03;16.67;;;10.80;;
83465;SDS011;73393;51.946;20.140;2024-02-23T13:08:29;14.55;;;10.98;;
83465;SDS011;73393;51.946;20.140;2024-02-23T13:10:56;15.27;;;11.57;;
83465;SDS011;73393;51.946;20.140;2024-02-23T13:13:22;18.35;;;12.93;;
83465;SDS011;73393;51.946;20.140;2024-02-23T13:15:48;20.38;;;12.63;;
83465;SDS011;73393;51.946;20.140;2024-02-23T13:18:15;18.15;;;11.75;;
83465;SDS011;73393;51.946;20.140;2024-02-23T13:20:41;15.70;;;11.80;;
83465;SDS011;73393;51.946;20.140;2024-02-23T13:23:07;20.63;;;12.05;;
83465;SDS011;73393;51.946;20.140;2024-02-23T13:25:34;16.17;;;10.38;;
83465;SDS011;73393;51.946;20.140;2024-02-23T13:28:00;13.88;;;8.25;;
83465;SDS011;73393;51.946;20.140;2024-02-23T13:30:26;16.90;;;10.70;;
83465;SDS011;73393;51.946;20.140;2024-02-23T13:32:52;18.48;;;13.57;;
83465;SDS011;73393;51.946;20.140;2024-02-23T13:35:18;28.08;;;16.83;;
83465;SDS011;73393;51.946;20.140;2024-02-23T13:37:44;26.15;;;18.85;;
83465;SDS011;73393;51.946;20.140;2024-02-23T13:40:10;27.05;;;18.92;;
83465;SDS011;73393;51.946;20.140;2024-02-23T13:42:36;20.27;;;15.60;;
83465;SDS011;73393;51.946;20.140;2024-02-23T13:45:08;20.50;;;15.20;;
83465;SDS011;73393;51.946;20.140;2024-02-23T13:47:34;32.25;;;19.95;;
83465;SDS011;73393;51.946;20.140;2024-02-23T13:50:04;27.33;;;17.92;;
83465;SDS011;73393;51.946;20.140;2024-02-23T13:52:30;17.38;;;13.38;;
83465;SDS011;73393;51.946;20.140;2024-02-23T13:54:56;17.17;;;13.07;;
83465;SDS011;73393;51.946;20.140;2024-02-23T13:57:22;17.45;;;13.88;;
83465;SDS011;73393;51.946;20.140;2024-02-23T13:59:47;18.90;;;13.23;;
83465;SDS011;73393;51.946;20.140;2024-02-23T14:02:13;21.88;;;16.13;;
83465;SDS011;73393;51.946;20.140;2024-02-23T14:04:39;16.60;;;12.30;;
83465;SDS011;73393;51.946;20.140;2024-02-23T14:07:05;17.67;;;14.57;;
83465;SDS011;73393;51.946;20.140;2024-02-23T14:09:31;22.63;;;16.33;;
83465;SDS011;73393;51.946;20.140;2024-02-23T14:11:57;20.88;;;14.93;;
83465;SDS011;73393;51.946;20.140;2024-02-23T14:14:22;32.67;;;17.38;;
83465;SDS011;73393;51.946;20.140;2024-02-23T14:16:49;39.90;;;23.60;;
83465;SDS011;73393;51.946;20.140;2024-02-23T14:19:15;38.90;;;23.95;;
83465;SDS011;73393;51.946;20.140;2024-02-23T14:21:41;37.05;;;23.25;;
83465;SDS011;73393;51.946;20.140;2024-02-23T14:24:08;34.63;;;23.00;;
83465;SDS011;73393;51.946;20.140;2024-02-23T14:26:34;29.98;;;20.85;;